Time;durP1;ratioP1;P1;durP2;ratioP2;P2;SDS_P1;SDS_P2;PMS_P1;PMS_P2;Temp;Humidity;BMP_temperature;BMP_pressure;BME280_temperature;BME280_humidity;BME280_pressure;Samples;Min_cycle;Max_cycle;Signal;HPM_P1;HPM_P2
2021/08/18 00:00:19;;;;;;;27.63;17.15;;;;;;;13.44;100.00;100899.28;690834;28;1906;-51
2021/08/18 00:00:41;;;;;;;22.20;16.13;;;;;;;13.43;99.93;100899.28;691438;28;4504;-53
2021/08/18 00:01:01;;;;;;;27.80;16.13;;;;;;;13.41;100.00;100901.06;690585;28;4686;-52
2021/08/18 00:01:22;;;;;;;39.42;17.05;;;;;;;13.39;100.00;100902.88;692585;28;1616;-55
2021/08/18 00:01:42;;;;;;;31.00;17.50;;;;;;;13.49;100.00;100899.22;696167;28;1611;-53
2021/08/18 00:02:04;;;;;;;26.27;17.45;;;;;;;13.50;100.00;100895.72;693876;28;1787;-54
2021/08/18 00:02:25;;;;;;;22.92;16.52;;;;;;;13.48;100.00;100897.47;694596;28;1839;-53
2021/08/18 00:02:45;;;;;;;25.35;17.17;;;;;;;13.47;99.95;100900.97;694515;28;1674;-55
2021/08/18 00:03:06;;;;;;;23.17;16.83;;;;;;;13.44;99.96;100901.03;694261;28;1616;-59
2021/08/18 00:03:28;;;;;;;33.47;16.65;;;;;;;13.42;100.00;100901.06;694616;28;1195;-56
2021/08/18 00:03:48;;;;;;;31.95;17.60;;;;;;;13.40;100.00;100902.84;693915;28;5693;-55
2021/08/18 00:04:09;;;;;;;27.35;17.52;;;;;;;13.39;100.00;100900.25;696125;28;4659;-53
2021/08/18 00:04:29;;;;;;;26.77;16.77;;;;;;;13.39;100.00;100903.72;693662;28;1931;-55
2021/08/18 00:04:50;;;;;;;22.52;16.17;;;;;;;13.38;100.00;100904.59;693621;28;1489;-55
2021/08/18 00:05:14;;;;;;;24.98;16.92;;;;;;;13.40;100.00;100896.69;694505;28;1401;-55
2021/08/18 00:05:35;;;;;;;28.10;17.00;;;;;;;13.40;100.00;100899.34;691837;28;1505;-54
2021/08/18 00:05:55;;;;;;;23.63;16.88;;;;;;;13.39;100.00;100902.88;692351;28;1121;-55
2021/08/18 00:06:18;;;;;;;22.97;16.67;;;;;;;13.38;100.00;100903.75;692066;28;1678;-55
2021/08/18 00:06:38;;;;;;;25.88;17.17;;;;;;;13.38;100.00;100906.38;692435;28;4598;-52
2021/08/18 00:06:59;;;;;;;30.93;18.27;;;;;;;13.37;100.00;100904.63;692860;28;4287;-55
2021/08/18 00:07:20;;;;;;;34.92;18.67;;;;;;;13.37;100.00;100902.00;694500;28;1432;-53
2021/08/18 00:07:41;;;;;;;29.15;17.98;;;;;;;13.36;100.00;100908.13;695874;28;2007;-54
2021/08/18 00:08:02;;;;;;;26.27;17.52;;;;;;;13.34;100.00;100895.00;696437;28;1095;-52
2021/08/18 00:08:22;;;;;;;27.65;17.70;;;;;;;13.48;100.00;100897.47;697335;28;1356;-55
2021/08/18 00:08:44;;;;;;;29.43;17.30;;;;;;;13.53;100.00;100902.69;693938;28;1490;-53
2021/08/18 00:09:05;;;;;;;22.92;16.42;;;;;;;13.57;100.00;100891.25;693993;28;1362;-56
2021/08/18 00:09:26;;;;;;;22.98;16.50;;;;;;;13.66;99.82;100898.13;694975;28;1207;-54
2021/08/18 00:09:47;;;;;;;22.53;16.80;;;;;;;13.59;99.53;100900.81;693076;28;4425;-55
2021/08/18 00:10:13;;;;;;;22.05;16.25;;;;;;;13.55;99.60;100896.50;693206;28;1773;-54
2021/08/18 00:10:35;;;;;;;25.88;16.08;;;;;;;13.51;99.96;100900.06;694725;28;1771;-55
2021/08/18 00:10:55;;;;;;;29.65;17.27;;;;;;;13.50;100.00;100898.34;696694;28;1468;-55
2021/08/18 00:11:15;;;;;;;31.53;17.50;;;;;;;13.51;100.00;100900.06;696980;28;1136;-54
2021/08/18 00:11:36;;;;;;;26.63;17.53;;;;;;;13.50;100.00;100900.97;696759;28;1269;-52
2021/08/18 00:11:56;;;;;;;25.90;17.40;;;;;;;13.55;100.00;100895.63;697287;28;1292;-53
2021/08/18 00:12:18;;;;;;;24.45;16.75;;;;;;;13.52;99.89;100891.28;697023;28;1128;-54
2021/08/18 00:12:39;;;;;;;24.27;16.80;;;;;;;13.51;100.00;100892.19;695095;28;4751;-55
2021/08/18 00:12:59;;;;;;;24.20;16.48;;;;;;;13.48;99.92;100897.47;697596;28;1704;-52
2021/08/18 00:13:23;;;;;;;24.83;16.90;;;;;;;13.45;100.00;100895.75;696295;28;1572;-54
2021/08/18 00:13:43;;;;;;;27.02;16.52;;;;;;;13.50;100.00;100898.34;694268;28;1525;-54
2021/08/18 00:14:04;;;;;;;28.00;16.80;;;;;;;13.52;100.00;100896.53;692801;28;1491;-53
2021/08/18 00:14:24;;;;;;;32.45;17.08;;;;;;;13.48;100.00;100897.47;693200;28;1993;-52
2021/08/18 00:14:45;;;;;;;40.27;17.37;;;;;;;13.47;100.00;100895.72;691651;28;1282;-54
2021/08/18 00:15:08;;;;;;;28.90;16.33;;;;;;;13.49;100.00;100893.13;689024;28;1140;-52
2021/08/18 00:15:29;;;;;;;23.42;16.10;;;;;;;13.48;100.00;100901.88;689090;28;3958;-54
2021/08/18 00:15:51;;;;;;;22.75;16.30;;;;;;;13.45;100.00;100894.91;690123;28;4493;-54
2021/08/18 00:16:12;;;;;;;25.80;17.30;;;;;;;13.45;100.00;100897.53;690390;28;2108;-53
2021/08/18 00:16:32;;;;;;;23.05;16.05;;;;;;;13.43;100.00;100904.53;692083;28;2943;-55
2021/08/18 00:16:53;;;;;;;24.42;16.55;;;;;;;13.43;100.00;100900.16;695832;28;1292;-56
2021/08/18 00:17:13;;;;;;;26.57;16.77;;;;;;;13.49;100.00;100893.97;698988;28;1017;-54
2021/08/18 00:17:33;;;;;;;26.58;17.02;;;;;;;13.46;100.00;100896.63;696612;28;1538;-54
2021/08/18 00:17:59;;;;;;;30.67;17.50;;;;;;;13.44;100.00;100901.91;696457;28;1222;-55
2021/08/18 00:18:20;;;;;;;28.92;17.15;;;;;;;13.43;100.00;100896.66;696479;28;1221;-55
2021/08/18 00:18:40;;;;;;;25.53;16.60;;;;;;;13.42;100.00;100897.56;694985;28;4493;-55
2021/08/18 00:19:00;;;;;;;24.45;16.67;;;;;;;13.41;100.00;100901.06;696282;28;1716;-55
2021/08/18 00:19:21;;;;;;;27.10;17.13;;;;;;;13.40;100.00;100899.34;694231;28;1554;-53
2021/08/18 00:19:41;;;;;;;52.58;18.25;;;;;;;13.39;100.00;100902.88;694009;28;1469;-55
2021/08/18 00:20:02;;;;;;;47.93;18.30;;;;;;;13.37;100.00;100902.00;693586;28;1210;-55
2021/08/18 00:20:23;;;;;;;34.33;17.80;;;;;;;13.36;100.00;100898.53;693720;28;1934;-56
2021/08/18 00:20:43;;;;;;;32.08;18.08;;;;;;;13.37;100.00;100886.25;694275;28;1767;-54
2021/08/18 00:21:04;;;;;;;34.83;18.00;;;;;;;13.41;100.00;100901.06;694234;28;1504;-55
2021/08/18 00:21:25;;;;;;;43.33;18.05;;;;;;;13.40;100.00;100899.34;697042;28;4147;-53
2021/08/18 00:21:45;;;;;;;40.50;17.95;;;;;;;13.38;100.00;100896.72;693177;28;4478;-55
2021/08/18 00:22:06;;;;;;;42.33;17.97;;;;;;;13.37;100.00;100904.63;693046;28;1697;-53
2021/08/18 00:22:26;;;;;;;42.92;18.58;;;;;;;13.36;100.00;100895.91;693945;28;1859;-53
2021/08/18 00:22:46;;;;;;;42.17;18.30;;;;;;;13.36;100.00;100901.16;691952;28;1317;-51
2021/08/18 00:23:07;;;;;;;39.70;18.70;;;;;;;13.36;100.00;100897.63;691809;28;1638;-52
2021/08/18 00:23:27;;;;;;;35.10;18.17;;;;;;;13.37;100.00;100904.63;692134;28;1101;-55
2021/08/18 00:23:48;;;;;;;24.67;16.80;;;;;;;13.35;100.00;100902.03;694653;28;869;-53
2021/08/18 00:24:09;;;;;;;22.13;15.57;;;;;;;13.34;100.00;100900.25;694354;28;1025;-55
2021/08/18 00:24:29;;;;;;;23.03;16.20;;;;;;;13.53;100.00;100895.66;694490;28;4129;-55
2021/08/18 00:24:49;;;;;;;24.70;17.40;;;;;;;13.55;100.00;100896.50;694903;28;4571;-56
2021/08/18 00:25:12;;;;;;;24.30;16.63;;;;;;;13.54;100.00;100897.41;696418;28;1361;-53
2021/08/18 00:25:33;;;;;;;31.00;17.25;;;;;;;13.52;100.00;100899.16;695981;28;1388;-56
2021/08/18 00:25:55;;;;;;;39.17;18.00;;;;;;;13.50;100.00;100890.47;695655;28;1731;-50
2021/08/18 00:26:15;;;;;;;33.33;17.50;;;;;;;13.57;100.00;100892.09;698339;28;1254;-55
2021/08/18 00:26:36;;;;;;;24.58;16.20;;;;;;;13.70;100.00;100892.81;696393;28;1346;-54
2021/08/18 00:26:56;;;;;;;24.80;16.38;;;;;;;13.71;99.94;100888.44;693229;28;1250;-53
2021/08/18 00:27:16;;;;;;;23.03;16.30;;;;;;;13.67;99.36;100897.25;693637;28;4098;-52
2021/08/18 00:27:39;;;;;;;19.53;15.17;;;;;;;13.60;99.50;100897.31;693886;28;4976;-54
2021/08/18 00:28:00;;;;;;;21.40;15.73;;;;;;;13.56;99.90;100895.63;692008;28;4670;-55
2021/08/18 00:28:21;;;;;;;29.05;16.92;;;;;;;13.71;99.65;100891.91;692551;28;1493;-55
2021/08/18 00:28:42;;;;;;;25.05;17.08;;;;;;;13.83;99.45;100893.50;693778;28;1592;-51
2021/08/18 00:29:03;;;;;;;25.85;16.90;;;;;;;13.75;99.22;100890.13;695837;28;1380;-54
2021/08/18 00:29:23;;;;;;;30.85;17.02;;;;;;;13.72;99.62;100890.16;697439;28;1828;-52
2021/08/18 00:29:44;;;;;;;26.77;16.77;;;;;;;13.78;99.28;100887.44;695562;28;1498;-52
2021/08/18 00:30:06;;;;;;;20.63;16.27;;;;;;;13.74;98.95;100891.00;696277;28;1297;-53
2021/08/18 00:30:26;;;;;;;18.55;14.65;;;;;;;13.70;98.73;100891.94;697139;28;4323;-55
2021/08/18 00:30:47;;;;;;;19.10;14.98;;;;;;;13.66;98.60;100891.09;695565;28;4770;-54
2021/08/18 00:31:10;;;;;;;20.57;15.67;;;;;;;13.84;98.95;100889.97;695277;28;1777;-51
2021/08/18 00:31:31;;;;;;;20.10;15.75;;;;;;;13.95;98.09;100885.41;696875;28;1590;-55
2021/08/18 00:31:51;;;;;;;18.98;15.50;;;;;;;13.88;97.84;100886.41;696461;28;1769;-54
2021/08/18 00:32:12;;;;;;;18.70;15.30;;;;;;;13.82;97.90;100886.50;697938;28;2070;-52
2021/08/18 00:32:32;;;;;;;19.73;14.77;;;;;;;13.76;97.86;100890.09;696572;28;1384;-54
2021/08/18 00:32:53;;;;;;;18.30;14.70;;;;;;;13.73;97.87;100889.25;693832;28;1598;-53
2021/08/18 00:33:13;;;;;;;21.33;15.40;;;;;;;13.70;98.37;100891.94;693895;28;2680;-54
2021/08/18 00:33:34;;;;;;;26.53;16.20;;;;;;;13.71;98.84;100884.03;691555;28;4396;-51
2021/08/18 00:33:54;;;;;;;24.30;16.23;;;;;;;13.77;98.70;100889.19;691321;28;4745;-54
2021/08/18 00:34:15;;;;;;;21.87;16.03;;;;;;;13.77;98.86;100886.56;691299;28;1635;-54
2021/08/18 00:34:35;;;;;;;20.50;15.90;;;;;;;13.78;98.67;100896.19;692750;28;1435;-51
2021/08/18 00:34:56;;;;;;;20.93;16.17;;;;;;;13.77;98.30;100886.56;695488;28;1879;-50
2021/08/18 00:35:16;;;;;;;21.25;16.30;;;;;;;13.70;98.36;100887.53;694275;28;1568;-54
2021/08/18 00:35:37;;;;;;;24.17;16.43;;;;;;;13.68;98.88;100884.09;695877;28;1811;-54
2021/08/18 00:35:57;;;;;;;22.98;15.52;;;;;;;13.70;98.96;100884.91;696323;28;1684;-54
2021/08/18 00:36:18;;;;;;;23.23;15.70;;;;;;;13.68;99.16;100885.81;692575;28;3814;-52
2021/08/18 00:36:38;;;;;;;22.17;15.95;;;;;;;13.69;99.19;100890.19;692893;28;4458;-52
2021/08/18 00:36:59;;;;;;;22.03;15.57;;;;;;;13.72;98.86;100885.78;693289;28;1854;-55
2021/08/18 00:37:19;;;;;;;22.25;15.80;;;;;;;13.68;99.14;100885.81;694079;28;2045;-53
2021/08/18 00:37:39;;;;;;;24.73;15.90;;;;;;;13.63;99.16;100892.00;694727;28;2005;-53
2021/08/18 00:38:00;;;;;;;23.75;16.00;;;;;;;13.60;99.44;100886.81;693346;28;1842;-55
2021/08/18 00:38:21;;;;;;;25.55;16.63;;;;;;;13.61;99.63;100887.69;696668;28;2437;-55
2021/08/18 00:38:41;;;;;;;25.53;16.97;;;;;;;13.66;99.65;100880.59;697660;28;1135;-55
2021/08/18 00:39:02;;;;;;;23.30;16.55;;;;;;;13.74;99.33;100883.97;696117;28;3737;-55
2021/08/18 00:39:22;;;;;;;22.53;16.67;;;;;;;13.69;99.32;100883.16;697032;28;4201;-51
2021/08/18 00:39:43;;;;;;;25.85;16.88;;;;;;;13.65;99.41;100888.50;695280;28;4576;-51
2021/08/18 00:40:04;;;;;;;26.57;16.90;;;;;;;13.60;99.35;100884.19;695895;28;1362;-54
2021/08/18 00:40:25;;;;;;;26.27;16.92;;;;;;;13.57;99.58;100892.09;696605;28;1242;-54
2021/08/18 00:40:45;;;;;;;27.53;17.03;;;;;;;13.56;99.94;100879.00;697233;28;1443;-53
2021/08/18 00:41:06;;;;;;;27.87;16.93;;;;;;;13.52;99.74;100888.66;695861;28;1375;-55
2021/08/18 00:41:27;;;;;;;23.48;16.55;;;;;;;13.50;99.63;100882.59;697236;28;1447;-54
2021/08/18 00:41:47;;;;;;;28.23;16.60;;;;;;;13.48;100.00;100881.72;696685;28;1246;-53
2021/08/18 00:42:08;;;;;;;41.00;17.60;;;;;;;13.44;100.00;100875.66;694084;28;3690;-54
2021/08/18 00:42:28;;;;;;;40.13;18.25;;;;;;;13.44;100.00;100885.28;694290;28;4270;-54
2021/08/18 00:42:49;;;;;;;33.03;18.27;;;;;;;13.51;100.00;100881.66;693790;28;4485;-54
2021/08/18 00:43:09;;;;;;;31.38;17.85;;;;;;;13.69;100.00;100879.69;694428;28;1028;-55
2021/08/18 00:43:30;;;;;;;26.93;17.40;;;;;;;13.76;100.00;100878.72;695292;28;1426;-55
2021/08/18 00:43:50;;;;;;;23.55;17.15;;;;;;;13.75;99.96;100880.47;691614;28;1289;-54
2021/08/18 00:44:11;;;;;;;23.30;17.07;;;;;;;13.71;99.55;100883.19;694508;28;1399;-54
2021/08/18 00:44:34;;;;;;;22.42;16.40;;;;;;;13.67;99.67;100879.72;694897;28;1579;-51
2021/08/18 00:44:55;;;;;;;26.38;17.33;;;;;;;13.61;99.94;100883.28;693875;28;1143;-56
2021/08/18 00:45:18;;;;;;;33.58;17.45;;;;;;;13.55;100.00;100879.88;693318;28;3866;-55
2021/08/18 00:45:41;;;;;;;28.00;17.73;;;;;;;13.58;100.00;100882.47;693462;28;4560;-52
2021/08/18 00:46:02;;;;;;;22.98;17.02;;;;;;;13.55;100.00;100875.47;695174;28;1783;-55
2021/08/18 00:46:23;;;;;;;26.30;17.63;;;;;;;13.56;100.00;100886.88;696315;28;1649;-53
2021/08/18 00:47:10;;;;;;;25.97;17.10;;;;;;;13.70;99.64;100874.41;697212;28;1681;-53
2021/08/18 00:47:41;;;;;;;21.60;16.25;;;;;;;13.64;99.63;100877.13;693218;28;1847;-53
2021/08/18 00:48:02;;;;;;;22.35;16.05;;;;;;;13.62;99.43;100884.16;695924;28;4155;-55
2021/08/18 00:48:22;;;;;;;21.77;16.17;;;;;;;13.71;99.57;100875.31;695978;28;4846;-54
2021/08/18 00:48:46;;;;;;;22.33;16.40;;;;;;;13.86;99.27;100872.44;695067;28;4586;-53
2021/08/18 00:49:06;;;;;;;20.60;15.75;;;;;;;14.02;98.45;100875.69;695995;28;1784;-54
2021/08/18 00:49:27;;;;;;;20.87;15.53;;;;;;;13.94;98.10;100880.19;694266;28;1546;-50
2021/08/18 00:49:47;;;;;;;19.88;14.90;;;;;;;13.87;97.77;100874.16;694584;28;1759;-54
2021/08/18 00:50:10;;;;;;;19.53;15.07;;;;;;;13.83;97.57;100876.84;695281;28;1341;-53
2021/08/18 00:50:30;;;;;;;20.45;15.23;;;;;;;13.83;98.03;100877.75;694784;28;1253;-52
2021/08/18 00:50:51;;;;;;;20.27;15.13;;;;;;;13.81;98.17;100874.25;694170;28;1629;-54
2021/08/18 00:51:13;;;;;;;20.93;15.47;;;;;;;13.87;98.04;100875.94;694084;28;4193;-53
2021/08/18 00:51:33;;;;;;;22.67;16.13;;;;;;;13.80;98.54;100877.78;694398;28;1469;-53
2021/08/18 00:51:54;;;;;;;22.73;16.33;;;;;;;13.75;98.60;100869.97;694598;28;4546;-53
2021/08/18 00:52:15;;;;;;;20.88;15.93;;;;;;;13.87;98.14;100871.53;693967;28;1514;-51
2021/08/18 00:52:35;;;;;;;20.67;15.70;;;;;;;13.84;98.36;100874.22;694038;28;1719;-51
2021/08/18 00:52:56;;;;;;;20.40;15.65;;;;;;;13.96;98.25;100866.13;693389;28;1448;-55
2021/08/18 00:53:18;;;;;;;20.70;15.27;;;;;;;13.93;97.91;100875.84;694424;28;1480;-51
2021/08/18 00:53:39;;;;;;;21.23;15.70;;;;;;;13.86;97.80;100868.94;693425;28;1252;-55
2021/08/18 00:53:59;;;;;;;21.42;15.43;;;;;;;13.79;98.21;100868.19;691486;28;4301;-58
2021/08/18 00:54:20;;;;;;;24.13;16.47;;;;;;;13.74;98.59;100860.34;694176;28;3965;-55
2021/08/18 00:54:41;;;;;;;24.50;16.40;;;;;;;13.72;98.93;100871.75;693029;28;4426;-52
2021/08/18 00:55:03;;;;;;;24.02;16.13;;;;;;;13.68;98.84;100873.56;693231;28;1557;-52
2021/08/18 00:55:25;;;;;;;21.92;15.77;;;;;;;13.66;99.08;100869.22;694571;28;1322;-52
2021/08/18 00:55:48;;;;;;;26.00;16.88;;;;;;;13.60;99.32;100871.03;694979;28;1680;-55
2021/08/18 00:56:10;;;;;;;36.25;16.83;;;;;;;13.59;99.67;100874.56;695629;28;1549;-52
2021/08/18 00:56:31;;;;;;;28.52;16.63;;;;;;;13.80;99.58;100864.63;696889;28;1242;-54
2021/08/18 00:56:52;;;;;;;23.85;16.65;;;;;;;13.78;98.94;100877.78;696555;28;1200;-56
2021/08/18 00:57:13;;;;;;;23.65;16.02;;;;;;;13.71;99.04;100864.78;696010;28;4466;-52
2021/08/18 00:57:33;;;;;;;25.77;16.57;;;;;;;13.79;99.31;100863.78;696155;28;1997;-54
2021/08/18 00:57:55;;;;;;;25.10;16.23;;;;;;;13.73;99.02;100865.63;695253;28;4749;-54
2021/08/18 00:58:15;;;;;;;23.40;15.98;;;;;;;13.71;99.09;100863.03;696698;28;1257;-55
2021/08/18 00:58:36;;;;;;;22.25;16.15;;;;;;;13.74;98.97;100872.63;696855;28;1693;-53
2021/08/18 00:58:56;;;;;;;20.63;15.50;;;;;;;13.70;99.09;100868.31;696938;28;1799;-55
2021/08/18 00:59:17;;;;;;;21.55;15.55;;;;;;;13.70;99.31;100869.16;696257;28;1148;-54
2021/08/18 00:59:37;;;;;;;22.47;16.03;;;;;;;13.67;99.40;100870.97;695226;28;1536;-54
2021/08/18 01:00:01;;;;;;;22.35;16.10;;;;;;;13.63;99.22;100871.00;694259;28;4182;-53
2021/08/18 01:00:24;;;;;;;24.17;16.38;;;;;;;13.59;99.89;100863.19;694522;28;4577;-55
2021/08/18 01:00:44;;;;;;;25.75;16.52;;;;;;;13.57;99.76;100870.25;693635;28;4280;-54
2021/08/18 01:01:07;;;;;;;25.42;16.35;;;;;;;13.56;100.00;100869.34;691860;28;1846;-54
2021/08/18 01:01:29;;;;;;;25.73;15.82;;;;;;;13.59;100.00;100863.19;689316;28;1510;-54
2021/08/18 01:01:49;;;;;;;26.13;16.43;;;;;;;13.59;99.81;100874.56;692001;28;1333;-54
2021/08/18 01:02:09;;;;;;;25.38;16.20;;;;;;;13.57;99.89;100865.84;691182;28;2244;-53
2021/08/18 01:02:31;;;;;;;26.93;16.23;;;;;;;13.65;100.00;100868.34;693088;28;1500;-54
2021/08/18 01:02:52;;;;;;;24.02;15.68;;;;;;;13.68;99.81;100877.94;692135;28;3452;-53
2021/08/18 01:03:12;;;;;;;22.23;15.10;;;;;;;13.66;99.43;100874.50;690282;28;4638;-54
2021/08/18 01:03:33;;;;;;;21.43;15.37;;;;;;;13.62;99.68;100865.78;693703;28;1642;-53
2021/08/18 01:03:54;;;;;;;24.27;15.57;;;;;;;13.71;99.69;100868.28;692833;28;4440;-51
2021/08/18 01:04:14;;;;;;;25.20;15.82;;;;;;;13.75;99.69;100871.75;693250;28;1848;-55
2021/08/18 01:04:35;;;;;;;21.93;15.47;;;;;;;13.71;99.33;100872.66;693401;28;1136;-50
2021/08/18 01:04:55;;;;;;;26.33;16.37;;;;;;;13.68;99.62;100872.69;695007;28;1862;-52
2021/08/18 01:05:22;;;;;;;28.93;16.47;;;;;;;13.63;99.71;100875.41;696485;28;1366;-52
2021/08/18 01:05:42;;;;;;;35.60;16.80;;;;;;;13.57;100.00;100871.09;696127;28;1349;-55
2021/08/18 01:06:03;;;;;;;27.45;16.52;;;;;;;13.55;100.00;100880.75;695617;28;1521;-55
2021/08/18 01:06:23;;;;;;;26.17;16.53;;;;;;;13.55;100.00;100877.25;695718;28;3148;-53
2021/08/18 01:06:45;;;;;;;26.03;16.30;;;;;;;13.52;100.00;100875.53;695931;28;4537;-54
2021/08/18 01:07:05;;;;;;;25.10;16.02;;;;;;;13.52;100.00;100875.53;695312;28;1633;-54
2021/08/18 01:07:25;;;;;;;26.15;16.20;;;;;;;13.56;100.00;100866.72;696079;28;1910;-55
2021/08/18 01:07:50;;;;;;;23.90;16.27;;;;;;;13.55;99.86;100875.47;692189;28;1918;-52
2021/08/18 01:08:10;;;;;;;25.10;16.23;;;;;;;13.56;100.00;100873.75;694604;28;1327;-52
2021/08/18 01:08:31;;;;;;;24.43;16.27;;;;;;;13.58;100.00;100867.59;694281;28;1915;-55
2021/08/18 01:08:51;;;;;;;22.35;15.27;;;;;;;13.78;99.86;100875.16;694574;28;1561;-54
2021/08/18 01:09:16;;;;;;;21.73;15.23;;;;;;;13.79;99.35;100869.03;693444;28;1211;-52
2021/08/18 01:09:36;;;;;;;20.42;14.68;;;;;;;13.76;99.37;100870.81;694401;28;4213;-54
2021/08/18 01:09:57;;;;;;;21.83;14.60;;;;;;;13.71;99.14;100873.53;693488;28;7284;-54
2021/08/18 01:10:22;;;;;;;23.65;15.10;;;;;;;13.70;99.50;100876.19;693983;28;1852;-52
2021/08/18 01:10:43;;;;;;;22.30;15.05;;;;;;;13.78;99.59;100869.06;693956;28;1506;-52
2021/08/18 01:11:03;;;;;;;22.90;15.00;;;;;;;13.75;99.71;100869.97;693188;28;1453;-52
2021/08/18 01:11:24;;;;;;;23.38;15.38;;;;;;;13.73;99.33;100876.97;692915;28;1508;-53
2021/08/18 01:11:47;;;;;;;21.73;14.67;;;;;;;13.75;99.51;100867.34;694083;28;1194;-54
2021/08/18 01:12:11;;;;;;;23.33;14.27;;;;;;;13.80;98.92;100869.88;696362;28;1225;-51
2021/08/18 01:12:37;;;;;;;20.40;13.98;;;;;;;13.85;99.01;100870.69;695953;28;1621;-51
2021/08/18 01:12:58;;;;;;;20.73;14.70;;;;;;;13.79;99.16;100870.81;695707;28;5179;-50
2021/08/18 01:13:19;;;;;;;24.13;15.50;;;;;;;13.75;99.42;100869.09;696003;28;1521;-50
2021/08/18 01:13:40;;;;;;;24.58;15.00;;;;;;;13.71;99.31;100870.03;695418;28;1861;-55
2021/08/18 01:14:01;;;;;;;24.30;14.90;;;;;;;13.68;99.63;100873.56;697496;28;1254;-53
2021/08/18 01:14:22;;;;;;;21.95;15.07;;;;;;;13.68;99.60;100872.69;696987;28;1605;-52
2021/08/18 01:14:42;;;;;;;23.03;15.67;;;;;;;13.68;99.74;100870.06;693614;28;1810;-54
2021/08/18 01:15:07;;;;;;;23.38;14.73;;;;;;;13.86;99.62;100876.81;693392;28;1190;-55
2021/08/18 01:15:30;;;;;;;21.83;14.30;;;;;;;14.06;98.84;100874.75;694792;28;1354;-53
2021/08/18 01:15:50;;;;;;;20.13;14.18;;;;;;;14.04;98.39;100873.03;690510;28;4430;-54
2021/08/18 01:16:11;;;;;;;19.45;14.15;;;;;;;13.98;98.25;100874.00;690225;28;4631;-51
2021/08/18 01:16:40;;;;;;;18.83;13.48;;;;;;;13.90;98.23;100875.88;692391;28;2049;-51
2021/08/18 01:17:00;;;;;;;18.95;13.93;;;;;;;13.83;98.29;100871.59;692140;28;1789;-54
2021/08/18 01:17:20;;;;;;;21.50;14.47;;;;;;;13.79;98.55;100865.53;689395;28;1449;-55
2021/08/18 01:17:43;;;;;;;25.43;14.40;;;;;;;13.73;99.22;100873.50;690007;28;1402;-55
2021/08/18 01:18:06;;;;;;;25.45;14.90;;;;;;;13.73;99.23;100873.50;691601;28;1374;-53
2021/08/18 01:18:26;;;;;;;21.63;14.55;;;;;;;13.76;99.22;100871.72;691717;28;1783;-55
2021/08/18 01:18:46;;;;;;;22.23;14.00;;;;;;;13.87;98.73;100874.16;691089;28;5636;-55
2021/08/18 01:19:10;;;;;;;21.80;13.70;;;;;;;13.83;98.59;100872.50;693334;28;4461;-54
2021/08/18 01:19:30;;;;;;;19.48;13.63;;;;;;;13.77;98.94;100873.44;695385;28;1603;-54
2021/08/18 01:19:50;;;;;;;19.87;13.63;;;;;;;13.95;98.55;100872.28;695962;28;1516;-53
2021/08/18 01:20:14;;;;;;;19.95;13.75;;;;;;;13.91;98.47;100870.59;692687;28;1916;-55
2021/08/18 01:20:40;;;;;;;19.13;13.48;;;;;;;13.79;98.77;100876.06;694247;28;1421;-55
2021/08/18 01:21:00;;;;;;;23.42;14.07;;;;;;;13.77;98.99;100875.19;693721;28;1523;-51
2021/08/18 01:21:21;;;;;;;23.90;13.85;;;;;;;13.74;99.12;100876.09;693831;28;1374;-54
2021/08/18 01:21:41;;;;;;;23.27;14.00;;;;;;;13.70;99.59;100876.19;694297;28;4582;-54
2021/08/18 01:22:04;;;;;;;21.70;13.95;;;;;;;13.86;99.25;100880.31;695313;28;1428;-54
2021/08/18 01:22:25;;;;;;;20.75;14.10;;;;;;;13.84;98.91;100876.84;696096;28;4288;-51
2021/08/18 01:22:46;;;;;;;21.40;14.40;;;;;;;13.78;99.27;100874.31;696156;28;1397;-53
2021/08/18 01:23:09;;;;;;;23.10;14.25;;;;;;;13.73;99.22;100876.13;695765;28;1255;-54
2021/08/18 01:23:29;;;;;;;20.73;13.77;;;;;;;13.70;99.28;100877.03;696083;28;1452;-54
2021/08/18 01:23:49;;;;;;;21.93;13.90;;;;;;;13.67;99.27;100877.09;696206;28;1293;-50
2021/08/18 01:24:11;;;;;;;20.17;13.80;;;;;;;13.79;99.63;100874.28;696287;28;1145;-55
2021/08/18 01:24:31;;;;;;;20.02;13.70;;;;;;;13.83;99.17;100876.84;696322;28;1178;-55
2021/08/18 01:24:52;;;;;;;19.93;13.43;;;;;;;13.75;99.16;100875.22;695910;28;4418;-56
2021/08/18 01:25:13;;;;;;;22.15;13.95;;;;;;;13.74;99.52;100875.25;696042;28;1159;-55
2021/08/18 01:25:42;;;;;;;22.17;14.00;;;;;;;13.77;99.42;100877.81;697271;28;4343;-54
2021/08/18 01:26:03;;;;;;;21.73;13.75;;;;;;;13.71;99.33;100881.41;696320;28;1520;-55
2021/08/18 01:26:23;;;;;;;23.03;13.57;;;;;;;13.67;99.65;100881.50;695933;28;1648;-53
2021/08/18 01:26:44;;;;;;;20.92;13.90;;;;;;;13.64;99.73;100877.13;696294;28;1692;-55
2021/08/18 01:27:04;;;;;;;21.03;14.07;;;;;;;13.60;99.63;100880.69;695199;28;2100;-55
2021/08/18 01:27:25;;;;;;;21.02;14.20;;;;;;;13.57;100.00;100876.34;697791;28;1650;-54
2021/08/18 01:27:49;;;;;;;20.98;14.50;;;;;;;13.60;99.93;100880.69;695342;28;4334;-55
2021/08/18 01:28:10;;;;;;;19.42;13.70;;;;;;;13.75;99.31;100880.47;695370;28;1164;-55
2021/08/18 01:28:31;;;;;;;19.77;13.35;;;;;;;13.68;99.62;100878.84;697281;28;1301;-55
2021/08/18 01:28:51;;;;;;;22.30;13.87;;;;;;;13.66;100.00;100882.38;696122;28;2123;-54
2021/08/18 01:29:12;;;;;;;22.98;14.15;;;;;;;13.61;99.63;100883.28;692738;28;3088;-53
2021/08/18 01:29:32;;;;;;;21.35;14.23;;;;;;;13.58;99.74;100879.84;694785;28;1796;-52
2021/08/18 01:29:53;;;;;;;22.13;14.47;;;;;;;13.53;100.00;100879.91;694150;28;1562;-54
2021/08/18 01:30:15;;;;;;;21.45;13.82;;;;;;;13.54;100.00;100889.53;691967;28;1258;-54
2021/08/18 01:30:37;;;;;;;18.77;13.15;;;;;;;13.53;99.93;100886.94;691901;28;2162;-55
2021/08/18 01:30:57;;;;;;;20.85;13.95;;;;;;;13.51;100.00;100881.66;686861;28;4498;-52
2021/08/18 01:31:18;;;;;;;21.80;14.17;;;;;;;13.55;100.00;100888.63;688350;28;1778;-53
2021/08/18 01:31:41;;;;;;;23.00;14.63;;;;;;;13.56;100.00;100881.63;689579;28;1739;-52
2021/08/18 01:32:01;;;;;;;23.10;14.80;;;;;;;13.62;100.00;100878.91;689755;28;3946;-54
2021/08/18 01:32:22;;;;;;;20.87;14.43;;;;;;;13.70;100.00;100889.31;691125;28;4467;-54
2021/08/18 01:32:47;;;;;;;20.02;14.15;;;;;;;13.68;99.70;100884.09;691948;28;1787;-54
2021/08/18 01:33:12;;;;;;;21.77;13.88;;;;;;;13.72;99.57;100884.91;695811;28;1483;-53
2021/08/18 01:33:32;;;;;;;21.98;13.90;;;;;;;13.74;99.51;100883.97;697166;28;1758;-55
2021/08/18 01:33:54;;;;;;;20.15;14.50;;;;;;;13.81;99.32;100886.53;696297;28;4456;-55
2021/08/18 01:34:14;;;;;;;20.75;14.00;;;;;;;13.76;99.25;100881.34;696181;28;1380;-53
2021/08/18 01:34:36;;;;;;;21.13;13.98;;;;;;;13.73;99.49;100889.25;696194;28;1580;-52
2021/08/18 01:34:57;;;;;;;21.20;14.05;;;;;;;13.68;99.44;100889.34;696700;28;1523;-51
2021/08/18 01:35:24;;;;;;;22.57;14.13;;;;;;;13.64;99.68;100887.66;695347;28;4003;-53
2021/08/18 01:35:50;;;;;;;24.92;14.35;;;;;;;13.63;100.00;100892.00;696663;28;4264;-54
2021/08/18 01:36:10;;;;;;;21.02;13.95;;;;;;;13.78;99.98;100892.69;694398;28;1693;-51
2021/08/18 01:36:32;;;;;;;21.60;13.73;;;;;;;13.75;99.64;100885.72;694082;28;1540;-52
2021/08/18 01:36:52;;;;;;;20.98;13.50;;;;;;;13.89;99.53;100882.03;694177;28;4464;-54
2021/08/18 01:37:12;;;;;;;19.43;12.97;;;;;;;13.83;99.08;100880.38;694541;28;1792;-54
2021/08/18 01:37:34;;;;;;;18.10;12.63;;;;;;;13.78;98.69;100883.06;695111;28;1326;-54
2021/08/18 01:37:55;;;;;;;20.13;13.40;;;;;;;13.72;99.36;100885.78;695951;28;1774;-52
2021/08/18 01:38:18;;;;;;;21.88;13.32;;;;;;;13.78;99.72;100887.44;696343;28;1084;-52
2021/08/18 01:38:42;;;;;;;22.33;14.13;;;;;;;13.75;99.21;100887.50;695416;28;3844;-51
2021/08/18 01:39:07;;;;;;;18.40;13.15;;;;;;;13.72;98.99;100888.41;695598;28;4517;-53